LAN434 SCEL-SAME
Flight info
| Callsign | LAN434 |
|---|---|
| Flight time | 0h 34m |
| Altitude | 29000 |
| Route | ALBAL7C ALBAL UT652 ESITO ESITO1U |
| Aircraft | A320/M-SDE3FGHIRWY/LB1 |
Departure
| Time | 2026-04-26 01:47 |
|---|---|
| Airport | Comodoro Arturo Merino Benítez International Airport (SCEL) |
Arrival
| Time | 2026-04-26 02:21 |
|---|---|
| Airport | Governor Francisco Gabrielli International Airport (SAME) |
| Time | Latitude | Longitude | Altitude | Speed | Heading |
|---|---|---|---|---|---|
| 2026-04-26 01:21 | -33.40386 | -70.79103 | 1565 ft | 0 kts | 357° |
| 2026-04-26 01:36 | -33.40393 | -70.79102 | 1564 ft | 2 kts | 357° |
| 2026-04-26 01:36 | -33.40413 | -70.79101 | 1564 ft | 3 kts | 357° |
| 2026-04-26 01:36 | -33.40409 | -70.79106 | 1564 ft | 3 kts | 137° |
| 2026-04-26 01:37 | -33.40428 | -70.79065 | 1564 ft | 3 kts | 107° |
| 2026-04-26 01:37 | -33.40432 | -70.79041 | 1564 ft | 3 kts | 97° |
| 2026-04-26 01:37 | -33.40432 | -70.79023 | 1564 ft | 1 kts | 88° |
| 2026-04-26 01:37 | -33.40433 | -70.79038 | 1564 ft | 3 kts | 77° |
| 2026-04-26 01:38 | -33.40440 | -70.79061 | 1564 ft | 3 kts | 64° |
| 2026-04-26 01:38 | -33.40446 | -70.79079 | 1564 ft | 1 kts | 86° |
| 2026-04-26 01:38 | -33.40446 | -70.79081 | 1564 ft | 0 kts | 87° |
| 2026-04-26 01:39 | -33.40445 | -70.79067 | 1564 ft | 8 kts | 85° |
| 2026-04-26 01:39 | -33.40441 | -70.78978 | 1564 ft | 12 kts | 87° |
| 2026-04-26 01:39 | -33.40431 | -70.78868 | 1564 ft | 14 kts | 68° |
| 2026-04-26 01:40 | -33.40374 | -70.78765 | 1564 ft | 16 kts | 53° |
| 2026-04-26 01:40 | -33.40261 | -70.78744 | 1564 ft | 19 kts | 357° |
| 2026-04-26 01:40 | -33.40122 | -70.78752 | 1564 ft | 21 kts | 357° |
| 2026-04-26 01:40 | -33.39968 | -70.78759 | 1564 ft | 23 kts | 357° |
| 2026-04-26 01:41 | -33.39800 | -70.78768 | 1564 ft | 25 kts | 356° |
| 2026-04-26 01:41 | -33.39656 | -70.78777 | 1565 ft | 21 kts | 357° |
| 2026-04-26 01:41 | -33.39499 | -70.78785 | 1565 ft | 23 kts | 358° |
| 2026-04-26 01:41 | -33.39328 | -70.78794 | 1564 ft | 26 kts | 358° |
| 2026-04-26 01:42 | -33.39142 | -70.78804 | 1564 ft | 28 kts | 357° |
| 2026-04-26 01:42 | -33.38938 | -70.78815 | 1564 ft | 31 kts | 358° |
| 2026-04-26 01:42 | -33.38718 | -70.78826 | 1564 ft | 33 kts | 358° |
| 2026-04-26 01:42 | -33.38483 | -70.78838 | 1564 ft | 35 kts | 358° |
| 2026-04-26 01:43 | -33.38256 | -70.78851 | 1565 ft | 29 kts | 358° |
| 2026-04-26 01:43 | -33.38047 | -70.78862 | 1564 ft | 31 kts | 358° |
| 2026-04-26 01:43 | -33.37823 | -70.78874 | 1565 ft | 33 kts | 357° |
| 2026-04-26 01:43 | -33.37630 | -70.78884 | 1564 ft | 21 kts | 358° |
| 2026-04-26 01:44 | -33.37546 | -70.78827 | 1564 ft | 11 kts | 75° |
| 2026-04-26 01:44 | -33.37549 | -70.78798 | 1564 ft | 0 kts | 85° |
| 2026-04-26 01:45 | -33.37548 | -70.78789 | 1564 ft | 3 kts | 85° |
| 2026-04-26 01:45 | -33.37548 | -70.78721 | 1564 ft | 11 kts | 100° |
| 2026-04-26 01:45 | -33.37611 | -70.78671 | 1564 ft | 12 kts | 176° |
| 2026-04-26 01:46 | -33.37625 | -70.78670 | 1565 ft | 2 kts | 177° |
| 2026-04-26 01:46 | -33.37746 | -70.78664 | 1565 ft | 56 kts | 177° |
| 2026-04-26 01:46 | -33.38438 | -70.78624 | 1565 ft | 138 kts | 177° |
| 2026-04-26 01:46 | -33.39570 | -70.78568 | 1881 ft | 176 kts | 177° |
| 2026-04-26 01:47 | -33.40827 | -70.78518 | 2804 ft | 184 kts | 178° |
| 2026-04-26 01:47 | -33.42089 | -70.78459 | 3546 ft | 184 kts | 176° |
| 2026-04-26 01:47 | -33.43446 | -70.78372 | 3860 ft | 208 kts | 176° |
| 2026-04-26 01:47 | -33.44975 | -70.78268 | 4270 ft | 232 kts | 176° |
| 2026-04-26 01:48 | -33.46671 | -70.78156 | 4757 ft | 255 kts | 176° |
| 2026-04-26 01:48 | -33.48497 | -70.78036 | 5500 ft | 267 kts | 176° |
| 2026-04-26 01:48 | -33.50362 | -70.77916 | 6408 ft | 272 kts | 177° |
| 2026-04-26 01:48 | -33.52272 | -70.77797 | 7306 ft | 276 kts | 177° |
| 2026-04-26 01:49 | -33.54206 | -70.77679 | 8191 ft | 280 kts | 177° |
| 2026-04-26 01:49 | -33.56165 | -70.77559 | 9065 ft | 284 kts | 177° |
| 2026-04-26 01:49 | -33.58162 | -70.77438 | 9928 ft | 289 kts | 177° |
| 2026-04-26 01:49 | -33.60223 | -70.77311 | 10428 ft | 307 kts | 178° |
| 2026-04-26 01:50 | -33.62437 | -70.77174 | 10672 ft | 330 kts | 178° |
| 2026-04-26 01:50 | -33.64788 | -70.77033 | 11126 ft | 343 kts | 178° |
| 2026-04-26 01:50 | -33.67194 | -70.76888 | 11868 ft | 347 kts | 179° |
| 2026-04-26 01:50 | -33.69577 | -70.76743 | 12666 ft | 348 kts | 179° |
| 2026-04-26 01:51 | -33.72031 | -70.76595 | 13524 ft | 349 kts | 180° |
| 2026-04-26 01:51 | -33.74424 | -70.76448 | 14332 ft | 349 kts | 180° |
| 2026-04-26 01:51 | -33.76886 | -70.76296 | 15034 ft | 351 kts | 180° |
| 2026-04-26 01:51 | -33.79283 | -70.75791 | 15662 ft | 360 kts | 166° |
| 2026-04-26 01:52 | -33.81576 | -70.74505 | 16300 ft | 371 kts | 152° |
| 2026-04-26 01:52 | -33.83573 | -70.72450 | 16891 ft | 384 kts | 136° |
| 2026-04-26 01:52 | -33.85074 | -70.69732 | 17511 ft | 398 kts | 121° |
| 2026-04-26 01:52 | -33.86241 | -70.66699 | 18128 ft | 403 kts | 119° |
| 2026-04-26 01:53 | -33.87416 | -70.63605 | 18700 ft | 408 kts | 119° |
| 2026-04-26 01:53 | -33.88598 | -70.60488 | 19278 ft | 412 kts | 120° |
| 2026-04-26 01:53 | -33.89799 | -70.57332 | 19848 ft | 416 kts | 120° |
| 2026-04-26 01:53 | -33.91004 | -70.54170 | 20489 ft | 419 kts | 120° |
| 2026-04-26 01:54 | -33.92228 | -70.50959 | 21050 ft | 423 kts | 120° |
| 2026-04-26 01:54 | -33.93457 | -70.47735 | 21519 ft | 426 kts | 120° |
| 2026-04-26 01:54 | -33.94700 | -70.44470 | 21986 ft | 430 kts | 120° |
| 2026-04-26 01:54 | -33.95949 | -70.41181 | 22523 ft | 433 kts | 121° |
| 2026-04-26 01:55 | -33.97207 | -70.37872 | 23022 ft | 437 kts | 121° |
| 2026-04-26 01:55 | -33.98479 | -70.34531 | 23573 ft | 440 kts | 121° |
| 2026-04-26 01:55 | -33.99755 | -70.31170 | 24063 ft | 443 kts | 121° |
| 2026-04-26 01:55 | -34.01040 | -70.27779 | 24466 ft | 447 kts | 120° |
| 2026-04-26 01:56 | -34.02332 | -70.24349 | 24870 ft | 450 kts | 121° |
| 2026-04-26 01:56 | -34.03628 | -70.20906 | 25258 ft | 453 kts | 121° |
| 2026-04-26 01:56 | -34.04934 | -70.17437 | 25680 ft | 457 kts | 121° |
| 2026-04-26 01:56 | -34.06255 | -70.13926 | 26078 ft | 459 kts | 120° |
| 2026-04-26 01:57 | -34.07571 | -70.10421 | 26383 ft | 461 kts | 121° |
| 2026-04-26 01:57 | -34.08901 | -70.06880 | 26748 ft | 466 kts | 121° |
| 2026-04-26 01:57 | -34.10247 | -70.03298 | 27192 ft | 467 kts | 121° |
| 2026-04-26 01:57 | -34.11587 | -69.99732 | 27615 ft | 469 kts | 121° |
| 2026-04-26 01:58 | -34.12938 | -69.96139 | 28036 ft | 472 kts | 121° |
| 2026-04-26 01:58 | -34.14297 | -69.92515 | 28431 ft | 474 kts | 121° |
| 2026-04-26 01:58 | -34.15602 | -69.88843 | 28794 ft | 482 kts | 116° |
| 2026-04-26 01:58 | -34.16474 | -69.84880 | 29146 ft | 493 kts | 105° |
| 2026-04-26 01:59 | -34.16788 | -69.80731 | 29231 ft | 498 kts | 94° |
| 2026-04-26 01:59 | -34.16499 | -69.76547 | 29205 ft | 503 kts | 83° |
| 2026-04-26 01:59 | -34.15622 | -69.72459 | 29209 ft | 506 kts | 73° |
| 2026-04-26 02:00 | -34.13253 | -69.64445 | 29171 ft | 506 kts | 72° |
| 2026-04-26 02:00 | -34.10895 | -69.56505 | 29169 ft | 506 kts | 72° |
| 2026-04-26 02:01 | -34.08522 | -69.48519 | 29138 ft | 503 kts | 72° |
| 2026-04-26 02:01 | -34.06167 | -69.40596 | 29136 ft | 501 kts | 72° |
| 2026-04-26 02:02 | -34.03803 | -69.32689 | 29117 ft | 501 kts | 72° |
| 2026-04-26 02:02 | -34.01454 | -69.24865 | 29100 ft | 501 kts | 72° |
| 2026-04-26 02:03 | -33.99080 | -69.16964 | 29106 ft | 501 kts | 71° |
| 2026-04-26 02:03 | -33.96702 | -69.09066 | 29071 ft | 503 kts | 71° |
| 2026-04-26 02:04 | -33.94303 | -69.01119 | 29062 ft | 505 kts | 71° |
| 2026-04-26 02:04 | -33.92872 | -68.97261 | 29059 ft | 506 kts | 60° |
| 2026-04-26 02:04 | -33.90873 | -68.93789 | 29064 ft | 504 kts | 47° |
| 2026-04-26 02:04 | -33.88419 | -68.90889 | 29033 ft | 500 kts | 35° |
| 2026-04-26 02:05 | -33.85546 | -68.88567 | 29048 ft | 493 kts | 24° |
| 2026-04-26 02:05 | -33.82427 | -68.86943 | 29053 ft | 485 kts | 12° |
| 2026-04-26 02:05 | -33.79166 | -68.86036 | 29061 ft | 476 kts | 1° |
| 2026-04-26 02:06 | -33.72632 | -68.85499 | 29068 ft | 470 kts | 356° |
| 2026-04-26 02:06 | -33.69356 | -68.85260 | 28813 ft | 470 kts | 356° |
| 2026-04-26 02:06 | -33.66099 | -68.85020 | 28541 ft | 470 kts | 356° |
| 2026-04-26 02:06 | -33.62833 | -68.84780 | 28240 ft | 471 kts | 356° |
| 2026-04-26 02:07 | -33.59554 | -68.84542 | 27973 ft | 471 kts | 356° |
| 2026-04-26 02:07 | -33.56296 | -68.84304 | 27490 ft | 467 kts | 356° |
| 2026-04-26 02:07 | -33.53054 | -68.84068 | 26747 ft | 465 kts | 356° |
| 2026-04-26 02:07 | -33.49836 | -68.83835 | 26061 ft | 462 kts | 356° |
| 2026-04-26 02:08 | -33.46638 | -68.83606 | 25374 ft | 459 kts | 357° |
| 2026-04-26 02:08 | -33.43458 | -68.83381 | 24680 ft | 457 kts | 357° |
| 2026-04-26 02:08 | -33.40280 | -68.83156 | 24000 ft | 456 kts | 358° |
| 2026-04-26 02:08 | -33.37124 | -68.82931 | 23234 ft | 454 kts | 358° |
| 2026-04-26 02:09 | -33.34032 | -68.82706 | 22609 ft | 449 kts | 358° |
| 2026-04-26 02:09 | -33.30893 | -68.82477 | 21962 ft | 444 kts | 358° |
| 2026-04-26 02:09 | -33.27815 | -68.82256 | 21351 ft | 441 kts | 358° |
| 2026-04-26 02:09 | -33.24764 | -68.82038 | 20752 ft | 438 kts | 358° |
| 2026-04-26 02:10 | -33.21731 | -68.81821 | 20160 ft | 436 kts | 358° |
| 2026-04-26 02:10 | -33.18745 | -68.81608 | 19590 ft | 434 kts | 358° |
| 2026-04-26 02:10 | -33.15730 | -68.81393 | 19001 ft | 433 kts | 358° |
| 2026-04-26 02:10 | -33.12745 | -68.81179 | 18383 ft | 431 kts | 359° |
| 2026-04-26 02:11 | -33.09755 | -68.80965 | 17738 ft | 429 kts | 359° |
| 2026-04-26 02:11 | -33.06780 | -68.80751 | 17104 ft | 426 kts | 359° |
| 2026-04-26 02:11 | -33.03836 | -68.80540 | 16469 ft | 417 kts | 359° |
| 2026-04-26 02:11 | -33.01019 | -68.80107 | 15843 ft | 404 kts | 10° |
| 2026-04-26 02:12 | -32.98421 | -68.78988 | 15196 ft | 395 kts | 24° |
| 2026-04-26 02:12 | -32.96073 | -68.77268 | 14548 ft | 397 kts | 31° |
| 2026-04-26 02:12 | -32.93769 | -68.75436 | 13885 ft | 398 kts | 31° |
| 2026-04-26 02:12 | -32.91471 | -68.73610 | 13165 ft | 396 kts | 32° |
| 2026-04-26 02:13 | -32.89234 | -68.71830 | 12515 ft | 378 kts | 32° |
| 2026-04-26 02:13 | -32.87098 | -68.70135 | 11892 ft | 361 kts | 32° |
| 2026-04-26 02:13 | -32.85733 | -68.69054 | 11488 ft | 352 kts | 32° |
| 2026-04-26 02:13 | -32.83730 | -68.67467 | 10907 ft | 339 kts | 32° |
| 2026-04-26 02:14 | -32.81811 | -68.65965 | 10602 ft | 319 kts | 28° |
| 2026-04-26 02:14 | -32.79859 | -68.64877 | 10221 ft | 302 kts | 15° |
| 2026-04-26 02:14 | -32.77182 | -68.64260 | 9968 ft | 292 kts | 0° |
| 2026-04-26 02:14 | -32.75813 | -68.64269 | 9871 ft | 291 kts | 353° |
| 2026-04-26 02:15 | -32.73798 | -68.64444 | 9751 ft | 291 kts | 353° |
| 2026-04-26 02:15 | -32.71783 | -68.64612 | 9622 ft | 290 kts | 353° |
| 2026-04-26 02:15 | -32.69761 | -68.64773 | 9211 ft | 295 kts | 354° |
| 2026-04-26 02:15 | -32.67714 | -68.64933 | 8737 ft | 290 kts | 354° |
| 2026-04-26 02:16 | -32.65736 | -68.65093 | 8370 ft | 276 kts | 352° |
| 2026-04-26 02:16 | -32.63988 | -68.65697 | 8192 ft | 254 kts | 328° |
| 2026-04-26 02:16 | -32.62739 | -68.67078 | 7880 ft | 241 kts | 301° |
| 2026-04-26 02:16 | -32.62146 | -68.68924 | 7586 ft | 242 kts | 278° |
| 2026-04-26 02:17 | -32.62298 | -68.70909 | 6958 ft | 248 kts | 251° |
| 2026-04-26 02:17 | -32.62980 | -68.72788 | 6463 ft | 247 kts | 248° |
| 2026-04-26 02:17 | -32.63662 | -68.74651 | 5958 ft | 245 kts | 248° |
| 2026-04-26 02:17 | -32.64316 | -68.76467 | 5713 ft | 232 kts | 248° |
| 2026-04-26 02:18 | -32.65104 | -68.78065 | 5617 ft | 222 kts | 226° |
| 2026-04-26 02:18 | -32.66434 | -68.78958 | 5615 ft | 224 kts | 193° |
| 2026-04-26 02:18 | -32.67993 | -68.78934 | 5605 ft | 226 kts | 173° |
| 2026-04-26 02:18 | -32.69559 | -68.78842 | 5601 ft | 224 kts | 181° |
| 2026-04-26 02:19 | -32.71093 | -68.78891 | 5409 ft | 214 kts | 183° |
| 2026-04-26 02:19 | -32.72525 | -68.79009 | 5037 ft | 207 kts | 186° |
| 2026-04-26 02:19 | -32.73977 | -68.79104 | 4528 ft | 202 kts | 182° |
| 2026-04-26 02:19 | -32.75313 | -68.79156 | 4177 ft | 187 kts | 171° |
| 2026-04-26 02:20 | -32.76554 | -68.79205 | 3979 ft | 167 kts | 178° |
| 2026-04-26 02:20 | -32.77681 | -68.79177 | 3554 ft | 164 kts | 180° |
| 2026-04-26 02:20 | -32.78820 | -68.79204 | 3098 ft | 163 kts | 180° |
| 2026-04-26 02:20 | -32.79920 | -68.79226 | 2784 ft | 153 kts | 179° |
| 2026-04-26 02:21 | -32.80968 | -68.79247 | 2580 ft | 148 kts | 180° |
| 2026-04-26 02:21 | -32.81993 | -68.79268 | 2377 ft | 146 kts | 181° |
| 2026-04-26 02:21 | -32.82934 | -68.79286 | 2341 ft | 113 kts | 181° |
| 2026-04-26 02:21 | -32.83422 | -68.79297 | 2336 ft | 33 kts | 181° |
| 2026-04-26 02:22 | -32.83666 | -68.79300 | 2338 ft | 36 kts | 180° |
| 2026-04-26 02:22 | -32.83914 | -68.79304 | 2341 ft | 31 kts | 181° |
| 2026-04-26 02:22 | -32.84062 | -68.79328 | 2341 ft | 9 kts | 246° |
| 2026-04-26 02:22 | -32.84057 | -68.79414 | 2341 ft | 13 kts | 281° |
| 2026-04-26 02:23 | -32.84034 | -68.79526 | 2341 ft | 13 kts | 311° |
| 2026-04-26 02:23 | -32.83987 | -68.79528 | 2341 ft | 6 kts | 358° |
| 2026-04-26 02:23 | -32.83877 | -68.79529 | 2341 ft | 20 kts | 1° |
| 2026-04-26 02:23 | -32.83728 | -68.79526 | 2341 ft | 23 kts | 1° |
| 2026-04-26 02:24 | -32.83560 | -68.79523 | 2341 ft | 25 kts | 1° |
| 2026-04-26 02:24 | -32.83380 | -68.79518 | 2341 ft | 27 kts | 1° |
| 2026-04-26 02:24 | -32.83185 | -68.79515 | 2341 ft | 29 kts | 1° |
| 2026-04-26 02:24 | -32.83022 | -68.79529 | 2342 ft | 21 kts | 327° |
| 2026-04-26 02:25 | -32.82939 | -68.79620 | 2341 ft | 14 kts | 300° |
| 2026-04-26 02:25 | -32.82913 | -68.79706 | 2342 ft | 10 kts | 333° |
| 2026-04-26 02:25 | -32.82838 | -68.79707 | 2341 ft | 12 kts | 1° |
| 2026-04-26 02:25 | -32.82767 | -68.79708 | 2341 ft | 6 kts | 348° |
| 2026-04-26 02:26 | -32.82762 | -68.79747 | 2341 ft | 2 kts | 265° |
| 2026-04-26 02:26 | -32.82763 | -68.79765 | 2341 ft | 1 kts | 265° |
| 2026-04-26 02:26 | -32.82764 | -68.79778 | 2341 ft | 0 kts | 265° |